sensor_id;sensor_type;location;lat;lon;timestamp;temperature;humidity
14172;DHT22;7165;52.388;4.928;2022-12-29T00:01:38;11.30;99.90
14172;DHT22;7165;52.388;4.928;2022-12-29T00:04:04;11.30;99.90
14172;DHT22;7165;52.388;4.928;2022-12-29T00:06:32;11.30;99.90
14172;DHT22;7165;52.388;4.928;2022-12-29T00:08:59;11.30;99.90
14172;DHT22;7165;52.388;4.928;2022-12-29T00:11:26;11.30;99.90
14172;DHT22;7165;52.388;4.928;2022-12-29T00:13:55;11.30;99.90
14172;DHT22;7165;52.388;4.928;2022-12-29T00:16:41;11.30;99.90
14172;DHT22;7165;52.388;4.928;2022-12-29T00:19:08;11.30;99.90
14172;DHT22;7165;52.388;4.928;2022-12-29T00:21:55;11.40;99.90
14172;DHT22;7165;52.388;4.928;2022-12-29T00:24:39;11.40;99.90
14172;DHT22;7165;52.388;4.928;2022-12-29T00:27:23;11.40;99.90
14172;DHT22;7165;52.388;4.928;2022-12-29T00:30:10;11.40;99.90
14172;DHT22;7165;52.388;4.928;2022-12-29T00:32:55;11.40;99.90
14172;DHT22;7165;52.388;4.928;2022-12-29T00:35:42;11.30;99.90
14172;DHT22;7165;52.388;4.928;2022-12-29T00:38:10;11.30;99.90
14172;DHT22;7165;52.388;4.928;2022-12-29T00:40:55;11.40;99.90
14172;DHT22;7165;52.388;4.928;2022-12-29T00:43:39;11.40;99.90
14172;DHT22;7165;52.388;4.928;2022-12-29T00:46:25;11.40;99.90
14172;DHT22;7165;52.388;4.928;2022-12-29T00:48:52;11.40;99.90
14172;DHT22;7165;52.388;4.928;2022-12-29T00:51:36;11.40;99.90
14172;DHT22;7165;52.388;4.928;2022-12-29T00:54:03;11.40;99.90
14172;DHT22;7165;52.388;4.928;2022-12-29T00:56:29;11.40;99.90
14172;DHT22;7165;52.388;4.928;2022-12-29T00:59:00;11.50;99.90
14172;DHT22;7165;52.388;4.928;2022-12-29T01:01:28;11.50;99.90
14172;DHT22;7165;52.388;4.928;2022-12-29T01:03:55;11.50;99.90
14172;DHT22;7165;52.388;4.928;2022-12-29T01:06:23;11.50;99.90
14172;DHT22;7165;52.388;4.928;2022-12-29T01:08:50;11.50;99.90
14172;DHT22;7165;52.388;4.928;2022-12-29T01:11:38;11.50;99.90
14172;DHT22;7165;52.388;4.928;2022-12-29T01:14:04;11.60;99.90
14172;DHT22;7165;52.388;4.928;2022-12-29T01:16:33;11.60;99.90
14172;DHT22;7165;52.388;4.928;2022-12-29T01:19:02;11.60;99.90
14172;DHT22;7165;52.388;4.928;2022-12-29T01:21:28;11.60;99.90
14172;DHT22;7165;52.388;4.928;2022-12-29T01:23:55;11.60;99.90
14172;DHT22;7165;52.388;4.928;2022-12-29T01:26:22;11.70;99.90
14172;DHT22;7165;52.388;4.928;2022-12-29T01:28:48;11.70;99.90
14172;DHT22;7165;52.388;4.928;2022-12-29T01:31:15;11.60;99.90
14172;DHT22;7165;52.388;4.928;2022-12-29T01:33:44;11.60;99.90
14172;DHT22;7165;52.388;4.928;2022-12-29T01:36:13;11.60;99.90
14172;DHT22;7165;52.388;4.928;2022-12-29T01:38:40;11.60;99.90
14172;DHT22;7165;52.388;4.928;2022-12-29T01:41:08;11.60;99.90
14172;DHT22;7165;52.388;4.928;2022-12-29T01:43:40;11.60;99.90
14172;DHT22;7165;52.388;4.928;2022-12-29T01:46:13;11.60;99.90
14172;DHT22;7165;52.388;4.928;2022-12-29T01:48:44;11.60;99.90
14172;DHT22;7165;52.388;4.928;2022-12-29T01:51:11;11.60;99.90
14172;DHT22;7165;52.388;4.928;2022-12-29T01:53:38;11.50;99.90
14172;DHT22;7165;52.388;4.928;2022-12-29T01:56:07;11.50;99.90
14172;DHT22;7165;52.388;4.928;2022-12-29T01:58:39;11.50;99.90
14172;DHT22;7165;52.388;4.928;2022-12-29T02:01:08;11.50;99.90
14172;DHT22;7165;52.388;4.928;2022-12-29T02:03:35;11.40;99.90
14172;DHT22;7165;52.388;4.928;2022-12-29T02:06:07;11.40;99.90
14172;DHT22;7165;52.388;4.928;2022-12-29T02:08:35;11.40;99.90
14172;DHT22;7165;52.388;4.928;2022-12-29T02:11:02;11.40;99.90
14172;DHT22;7165;52.388;4.928;2022-12-29T02:13:30;11.40;99.90
14172;DHT22;7165;52.388;4.928;2022-12-29T02:16:04;11.40;99.90
14172;DHT22;7165;52.388;4.928;2022-12-29T02:18:39;11.30;99.90
14172;DHT22;7165;52.388;4.928;2022-12-29T02:21:43;11.30;99.90
14172;DHT22;7165;52.388;4.928;2022-12-29T02:24:36;11.40;99.90
14172;DHT22;7165;52.388;4.928;2022-12-29T02:30:28;11.30;99.90
14172;DHT22;7165;52.388;4.928;2022-12-29T02:32:59;11.30;99.90
14172;DHT22;7165;52.388;4.928;2022-12-29T02:35:33;11.30;99.90
14172;DHT22;7165;52.388;4.928;2022-12-29T02:38:10;11.30;99.90
14172;DHT22;7165;52.388;4.928;2022-12-29T02:40:41;11.30;99.90
14172;DHT22;7165;52.388;4.928;2022-12-29T02:43:17;11.20;99.90
14172;DHT22;7165;52.388;4.928;2022-12-29T02:45:52;11.20;99.90
14172;DHT22;7165;52.388;4.928;2022-12-29T02:48:24;11.20;99.90
14172;DHT22;7165;52.388;4.928;2022-12-29T02:50:58;11.10;99.90
14172;DHT22;7165;52.388;4.928;2022-12-29T02:53:26;11.10;99.90
14172;DHT22;7165;52.388;4.928;2022-12-29T02:56:12;11.10;99.90
14172;DHT22;7165;52.388;4.928;2022-12-29T02:58:38;11.10;99.90
14172;DHT22;7165;52.388;4.928;2022-12-29T03:01:20;11.10;99.90
14172;DHT22;7165;52.388;4.928;2022-12-29T03:06:50;11.00;99.90
14172;DHT22;7165;52.388;4.928;2022-12-29T03:09:24;11.00;99.90
14172;DHT22;7165;52.388;4.928;2022-12-29T03:11:58;11.00;99.90
14172;DHT22;7165;52.388;4.928;2022-12-29T03:14:39;10.90;99.90
14172;DHT22;7165;52.388;4.928;2022-12-29T03:17:35;10.80;99.90
14172;DHT22;7165;52.388;4.928;2022-12-29T03:20:07;10.80;99.90
14172;DHT22;7165;52.388;4.928;2022-12-29T03:22:38;10.80;99.90
14172;DHT22;7165;52.388;4.928;2022-12-29T03:25:12;10.80;99.90
14172;DHT22;7165;52.388;4.928;2022-12-29T03:27:43;10.80;99.90
14172;DHT22;7165;52.388;4.928;2022-12-29T03:30:12;10.70;99.90
14172;DHT22;7165;52.388;4.928;2022-12-29T03:32:43;10.70;99.90
14172;DHT22;7165;52.388;4.928;2022-12-29T03:35:14;10.70;99.90
14172;DHT22;7165;52.388;4.928;2022-12-29T03:37:50;10.70;99.90
14172;DHT22;7165;52.388;4.928;2022-12-29T03:40:21;10.70;99.90
14172;DHT22;7165;52.388;4.928;2022-12-29T03:42:48;10.70;99.90
14172;DHT22;7165;52.388;4.928;2022-12-29T03:45:15;10.70;99.90
14172;DHT22;7165;52.388;4.928;2022-12-29T03:47:43;10.70;99.90
14172;DHT22;7165;52.388;4.928;2022-12-29T03:50:11;10.60;99.90
14172;DHT22;7165;52.388;4.928;2022-12-29T03:52:38;10.60;99.90
14172;DHT22;7165;52.388;4.928;2022-12-29T03:55:05;10.60;99.90
14172;DHT22;7165;52.388;4.928;2022-12-29T03:57:32;10.60;99.90
14172;DHT22;7165;52.388;4.928;2022-12-29T03:59:59;10.60;99.90
14172;DHT22;7165;52.388;4.928;2022-12-29T04:02:25;10.60;99.90
14172;DHT22;7165;52.388;4.928;2022-12-29T04:04:53;10.60;99.90
14172;DHT22;7165;52.388;4.928;2022-12-29T04:07:20;10.70;99.90
14172;DHT22;7165;52.388;4.928;2022-12-29T04:09:47;10.70;99.90
14172;DHT22;7165;52.388;4.928;2022-12-29T04:12:13;10.70;99.90
14172;DHT22;7165;52.388;4.928;2022-12-29T04:14:40;10.70;99.90
14172;DHT22;7165;52.388;4.928;2022-12-29T04:17:07;10.70;99.90
14172;DHT22;7165;52.388;4.928;2022-12-29T04:19:34;10.70;99.90
14172;DHT22;7165;52.388;4.928;2022-12-29T04:22:02;10.70;99.90
14172;DHT22;7165;52.388;4.928;2022-12-29T04:24:28;10.70;99.90
14172;DHT22;7165;52.388;4.928;2022-12-29T04:26:55;10.70;99.90
14172;DHT22;7165;52.388;4.928;2022-12-29T04:29:22;10.70;99.90
14172;DHT22;7165;52.388;4.928;2022-12-29T04:31:48;10.70;99.90
14172;DHT22;7165;52.388;4.928;2022-12-29T04:34:15;10.70;99.90
14172;DHT22;7165;52.388;4.928;2022-12-29T04:36:42;10.70;99.90
14172;DHT22;7165;52.388;4.928;2022-12-29T04:39:10;10.70;99.90
14172;DHT22;7165;52.388;4.928;2022-12-29T04:41:37;10.70;99.90
14172;DHT22;7165;52.388;4.928;2022-12-29T04:44:03;10.70;99.90
14172;DHT22;7165;52.388;4.928;2022-12-29T04:46:30;10.70;99.90
14172;DHT22;7165;52.388;4.928;2022-12-29T04:48:57;10.70;99.90
14172;DHT22;7165;52.388;4.928;2022-12-29T04:51:26;10.60;99.90
14172;DHT22;7165;52.388;4.928;2022-12-29T04:53:52;10.60;99.90
14172;DHT22;7165;52.388;4.928;2022-12-29T04:56:20;10.60;99.90
14172;DHT22;7165;52.388;4.928;2022-12-29T04:58:47;10.60;99.90
14172;DHT22;7165;52.388;4.928;2022-12-29T05:01:14;10.60;99.90
14172;DHT22;7165;52.388;4.928;2022-12-29T05:03:40;10.50;99.90
14172;DHT22;7165;52.388;4.928;2022-12-29T05:06:07;10.50;99.90
14172;DHT22;7165;52.388;4.928;2022-12-29T05:08:34;10.50;99.90
14172;DHT22;7165;52.388;4.928;2022-12-29T05:11:00;10.50;99.90
14172;DHT22;7165;52.388;4.928;2022-12-29T05:13:28;10.50;99.90
14172;DHT22;7165;52.388;4.928;2022-12-29T05:15:55;10.50;99.90
14172;DHT22;7165;52.388;4.928;2022-12-29T05:18:22;10.50;99.90
14172;DHT22;7165;52.388;4.928;2022-12-29T05:20:48;10.50;99.90
14172;DHT22;7165;52.388;4.928;2022-12-29T05:23:15;10.50;99.90
14172;DHT22;7165;52.388;4.928;2022-12-29T05:25:43;10.50;99.90
14172;DHT22;7165;52.388;4.928;2022-12-29T05:28:10;10.50;99.90
14172;DHT22;7165;52.388;4.928;2022-12-29T05:30:38;10.50;99.90
14172;DHT22;7165;52.388;4.928;2022-12-29T05:33:05;10.50;99.90
14172;DHT22;7165;52.388;4.928;2022-12-29T05:35:32;10.40;99.90
14172;DHT22;7165;52.388;4.928;2022-12-29T05:37:59;10.50;99.90
14172;DHT22;7165;52.388;4.928;2022-12-29T05:40:26;10.50;99.90
14172;DHT22;7165;52.388;4.928;2022-12-29T05:42:52;10.50;99.90
14172;DHT22;7165;52.388;4.928;2022-12-29T05:45:19;10.50;99.90
14172;DHT22;7165;52.388;4.928;2022-12-29T05:47:47;10.50;99.90
14172;DHT22;7165;52.388;4.928;2022-12-29T05:50:14;10.50;99.90
14172;DHT22;7165;52.388;4.928;2022-12-29T05:52:40;10.50;99.90
14172;DHT22;7165;52.388;4.928;2022-12-29T05:55:07;10.50;99.90
14172;DHT22;7165;52.388;4.928;2022-12-29T05:57:34;10.50;99.90
14172;DHT22;7165;52.388;4.928;2022-12-29T06:00:01;10.40;99.90
14172;DHT22;7165;52.388;4.928;2022-12-29T06:02:28;10.40;99.90
14172;DHT22;7165;52.388;4.928;2022-12-29T06:04:56;10.40;99.90
14172;DHT22;7165;52.388;4.928;2022-12-29T06:07:23;10.40;99.90
14172;DHT22;7165;52.388;4.928;2022-12-29T06:09:49;10.50;99.90
14172;DHT22;7165;52.388;4.928;2022-12-29T06:12:16;10.40;99.90
14172;DHT22;7165;52.388;4.928;2022-12-29T06:14:43;10.50;99.90
14172;DHT22;7165;52.388;4.928;2022-12-29T06:17:09;10.40;99.90
14172;DHT22;7165;52.388;4.928;2022-12-29T06:19:36;10.30;99.90
14172;DHT22;7165;52.388;4.928;2022-12-29T06:22:04;10.30;99.90
14172;DHT22;7165;52.388;4.928;2022-12-29T06:24:32;10.30;99.90
14172;DHT22;7165;52.388;4.928;2022-12-29T06:26:59;10.30;99.90
14172;DHT22;7165;52.388;4.928;2022-12-29T06:29:25;10.30;99.90
14172;DHT22;7165;52.388;4.928;2022-12-29T06:31:53;10.30;99.90
14172;DHT22;7165;52.388;4.928;2022-12-29T06:34:23;10.30;99.90
14172;DHT22;7165;52.388;4.928;2022-12-29T06:36:50;10.30;99.90
14172;DHT22;7165;52.388;4.928;2022-12-29T06:39:18;10.30;99.90
14172;DHT22;7165;52.388;4.928;2022-12-29T06:41:44;10.40;99.90
14172;DHT22;7165;52.388;4.928;2022-12-29T06:44:11;10.50;99.90
14172;DHT22;7165;52.388;4.928;2022-12-29T06:46:38;10.50;99.90
14172;DHT22;7165;52.388;4.928;2022-12-29T06:49:04;10.50;99.90
14172;DHT22;7165;52.388;4.928;2022-12-29T06:51:31;10.50;99.90
14172;DHT22;7165;52.388;4.928;2022-12-29T06:53:58;10.50;99.90
14172;DHT22;7165;52.388;4.928;2022-12-29T06:56:26;10.40;99.90
14172;DHT22;7165;52.388;4.928;2022-12-29T06:58:52;10.40;99.90
14172;DHT22;7165;52.388;4.928;2022-12-29T07:01:19;10.40;99.90
14172;DHT22;7165;52.388;4.928;2022-12-29T07:03:46;10.40;99.90
14172;DHT22;7165;52.388;4.928;2022-12-29T07:06:13;10.30;99.90
14172;DHT22;7165;52.388;4.928;2022-12-29T07:08:39;10.30;99.90
14172;DHT22;7165;52.388;4.928;2022-12-29T07:11:06;10.30;99.90
14172;DHT22;7165;52.388;4.928;2022-12-29T07:13:35;10.30;99.90
14172;DHT22;7165;52.388;4.928;2022-12-29T07:16:05;10.30;99.90
14172;DHT22;7165;52.388;4.928;2022-12-29T07:18:32;10.20;99.90
14172;DHT22;7165;52.388;4.928;2022-12-29T07:20:58;10.20;99.90
14172;DHT22;7165;52.388;4.928;2022-12-29T07:23:25;10.20;99.90
14172;DHT22;7165;52.388;4.928;2022-12-29T07:25:59;10.20;99.90
14172;DHT22;7165;52.388;4.928;2022-12-29T07:28:25;10.30;99.90
14172;DHT22;7165;52.388;4.928;2022-12-29T07:30:53;10.30;99.90
14172;DHT22;7165;52.388;4.928;2022-12-29T07:33:20;10.30;99.90
14172;DHT22;7165;52.388;4.928;2022-12-29T07:35:47;10.30;99.90
14172;DHT22;7165;52.388;4.928;2022-12-29T07:38:13;10.30;99.90
14172;DHT22;7165;52.388;4.928;2022-12-29T07:40:40;10.40;99.90
14172;DHT22;7165;52.388;4.928;2022-12-29T07:43:07;10.40;99.90
14172;DHT22;7165;52.388;4.928;2022-12-29T07:45:33;10.40;99.90
14172;DHT22;7165;52.388;4.928;2022-12-29T07:48:01;10.40;99.90
14172;DHT22;7165;52.388;4.928;2022-12-29T07:50:28;10.40;99.90
14172;DHT22;7165;52.388;4.928;2022-12-29T07:52:55;10.30;99.90
14172;DHT22;7165;52.388;4.928;2022-12-29T07:55:21;10.30;99.90
14172;DHT22;7165;52.388;4.928;2022-12-29T07:57:48;10.40;99.90
14172;DHT22;7165;52.388;4.928;2022-12-29T08:00:15;10.30;99.90
14172;DHT22;7165;52.388;4.928;2022-12-29T08:02:42;10.30;99.90
14172;DHT22;7165;52.388;4.928;2022-12-29T08:05:10;10.30;99.90
14172;DHT22;7165;52.388;4.928;2022-12-29T08:07:37;10.30;99.90
14172;DHT22;7165;52.388;4.928;2022-12-29T08:10:05;10.30;99.90
14172;DHT22;7165;52.388;4.928;2022-12-29T08:12:32;10.20;99.90
14172;DHT22;7165;52.388;4.928;2022-12-29T08:14:58;10.20;99.90
14172;DHT22;7165;52.388;4.928;2022-12-29T08:17:25;10.20;99.90
14172;DHT22;7165;52.388;4.928;2022-12-29T08:19:52;10.10;99.90
14172;DHT22;7165;52.388;4.928;2022-12-29T08:22:20;10.10;99.90
14172;DHT22;7165;52.388;4.928;2022-12-29T08:24:46;10.10;99.90
14172;DHT22;7165;52.388;4.928;2022-12-29T08:27:13;10.00;99.90
14172;DHT22;7165;52.388;4.928;2022-12-29T08:29:40;10.00;99.90
14172;DHT22;7165;52.388;4.928;2022-12-29T08:32:07;9.90;99.90
14172;DHT22;7165;52.388;4.928;2022-12-29T08:34:33;9.90;99.90
14172;DHT22;7165;52.388;4.928;2022-12-29T08:37:00;9.80;99.90
14172;DHT22;7165;52.388;4.928;2022-12-29T08:39:28;9.80;99.90
14172;DHT22;7165;52.388;4.928;2022-12-29T08:41:55;9.80;99.90
14172;DHT22;7165;52.388;4.928;2022-12-29T08:44:22;9.70;99.90
14172;DHT22;7165;52.388;4.928;2022-12-29T08:46:48;9.70;99.90
14172;DHT22;7165;52.388;4.928;2022-12-29T08:49:15;9.70;99.90
14172;DHT22;7165;52.388;4.928;2022-12-29T08:51:42;9.70;99.90
14172;DHT22;7165;52.388;4.928;2022-12-29T08:54:09;9.70;99.90
14172;DHT22;7165;52.388;4.928;2022-12-29T08:56:37;9.60;99.90
14172;DHT22;7165;52.388;4.928;2022-12-29T08:59:03;9.70;99.90
14172;DHT22;7165;52.388;4.928;2022-12-29T09:01:30;9.60;99.90
14172;DHT22;7165;52.388;4.928;2022-12-29T09:03:59;9.60;99.90
14172;DHT22;7165;52.388;4.928;2022-12-29T09:06:25;9.60;99.90
14172;DHT22;7165;52.388;4.928;2022-12-29T09:08:53;9.60;99.90
14172;DHT22;7165;52.388;4.928;2022-12-29T09:11:22;9.60;99.90
14172;DHT22;7165;52.388;4.928;2022-12-29T09:13:51;9.60;99.90
14172;DHT22;7165;52.388;4.928;2022-12-29T09:16:20;9.60;99.90
14172;DHT22;7165;52.388;4.928;2022-12-29T09:18:48;9.60;99.90
14172;DHT22;7165;52.388;4.928;2022-12-29T09:21:15;9.50;99.90
14172;DHT22;7165;52.388;4.928;2022-12-29T09:23:41;9.60;99.90
14172;DHT22;7165;52.388;4.928;2022-12-29T09:26:08;9.60;99.90
14172;DHT22;7165;52.388;4.928;2022-12-29T09:28:35;9.60;99.90
14172;DHT22;7165;52.388;4.928;2022-12-29T09:31:03;9.60;99.90
14172;DHT22;7165;52.388;4.928;2022-12-29T09:33:30;9.60;99.90
14172;DHT22;7165;52.388;4.928;2022-12-29T09:35:59;9.60;99.90
14172;DHT22;7165;52.388;4.928;2022-12-29T09:38:27;9.60;99.90
14172;DHT22;7165;52.388;4.928;2022-12-29T09:40:56;9.60;99.90
14172;DHT22;7165;52.388;4.928;2022-12-29T09:43:37;9.70;99.90
14172;DHT22;7165;52.388;4.928;2022-12-29T09:46:16;9.70;99.90
14172;DHT22;7165;52.388;4.928;2022-12-29T09:48:49;9.70;99.90
14172;DHT22;7165;52.388;4.928;2022-12-29T09:51:21;9.70;99.90
14172;DHT22;7165;52.388;4.928;2022-12-29T09:53:51;9.70;99.90
14172;DHT22;7165;52.388;4.928;2022-12-29T09:56:21;9.80;99.90
14172;DHT22;7165;52.388;4.928;2022-12-29T09:58:52;9.70;99.90
14172;DHT22;7165;52.388;4.928;2022-12-29T10:01:28;9.80;99.90
14172;DHT22;7165;52.388;4.928;2022-12-29T10:03:57;9.80;99.90
14172;DHT22;7165;52.388;4.928;2022-12-29T10:06:26;9.80;99.90
14172;DHT22;7165;52.388;4.928;2022-12-29T10:09:01;9.90;99.90
14172;DHT22;7165;52.388;4.928;2022-12-29T10:11:41;9.90;99.90
14172;DHT22;7165;52.388;4.928;2022-12-29T10:14:20;9.90;99.90
14172;DHT22;7165;52.388;4.928;2022-12-29T10:16:56;10.00;99.90
14172;DHT22;7165;52.388;4.928;2022-12-29T10:19:39;10.10;99.90
14172;DHT22;7165;52.388;4.928;2022-12-29T10:22:15;10.20;99.90
14172;DHT22;7165;52.388;4.928;2022-12-29T10:24:45;10.20;99.90
14172;DHT22;7165;52.388;4.928;2022-12-29T10:27:14;10.20;99.90
14172;DHT22;7165;52.388;4.928;2022-12-29T10:29:46;10.30;99.90
14172;DHT22;7165;52.388;4.928;2022-12-29T10:32:24;10.30;99.90
14172;DHT22;7165;52.388;4.928;2022-12-29T10:34:56;10.40;99.90
14172;DHT22;7165;52.388;4.928;2022-12-29T10:37:30;10.40;99.90
14172;DHT22;7165;52.388;4.928;2022-12-29T10:39:59;10.40;99.90
14172;DHT22;7165;52.388;4.928;2022-12-29T10:42:29;10.40;99.90
14172;DHT22;7165;52.388;4.928;2022-12-29T10:44:59;10.40;99.90
14172;DHT22;7165;52.388;4.928;2022-12-29T10:47:29;10.50;99.90
14172;DHT22;7165;52.388;4.928;2022-12-29T10:49:58;10.50;99.90
14172;DHT22;7165;52.388;4.928;2022-12-29T10:52:26;10.60;99.90
14172;DHT22;7165;52.388;4.928;2022-12-29T10:54:57;10.60;99.90
14172;DHT22;7165;52.388;4.928;2022-12-29T10:57:28;10.70;99.90
14172;DHT22;7165;52.388;4.928;2022-12-29T10:59:57;10.70;99.90
14172;DHT22;7165;52.388;4.928;2022-12-29T11:05:28;10.70;99.90
14172;DHT22;7165;52.388;4.928;2022-12-29T11:07:59;10.80;99.90
14172;DHT22;7165;52.388;4.928;2022-12-29T11:10:35;10.80;99.90
14172;DHT22;7165;52.388;4.928;2022-12-29T11:13:11;10.80;99.90
14172;DHT22;7165;52.388;4.928;2022-12-29T11:15:39;10.80;99.90
14172;DHT22;7165;52.388;4.928;2022-12-29T11:18:18;10.80;99.90
14172;DHT22;7165;52.388;4.928;2022-12-29T11:20:45;10.80;99.90
14172;DHT22;7165;52.388;4.928;2022-12-29T11:23:24;10.80;99.90
14172;DHT22;7165;52.388;4.928;2022-12-29T11:26:07;10.80;99.90
14172;DHT22;7165;52.388;4.928;2022-12-29T11:28:34;10.70;99.90
14172;DHT22;7165;52.388;4.928;2022-12-29T11:31:03;10.70;99.90
14172;DHT22;7165;52.388;4.928;2022-12-29T11:33:32;10.70;99.90
14172;DHT22;7165;52.388;4.928;2022-12-29T11:36:04;10.70;99.90
14172;DHT22;7165;52.388;4.928;2022-12-29T11:38:34;10.70;99.90
14172;DHT22;7165;52.388;4.928;2022-12-29T11:41:02;10.60;99.90
14172;DHT22;7165;52.388;4.928;2022-12-29T11:43:31;10.60;99.90
14172;DHT22;7165;52.388;4.928;2022-12-29T11:45:59;10.50;99.90
14172;DHT22;7165;52.388;4.928;2022-12-29T11:48:31;10.50;99.90
14172;DHT22;7165;52.388;4.928;2022-12-29T11:51:01;10.50;99.90
14172;DHT22;7165;52.388;4.928;2022-12-29T11:53:32;10.50;99.90
14172;DHT22;7165;52.388;4.928;2022-12-29T11:56:07;10.50;99.90
14172;DHT22;7165;52.388;4.928;2022-12-29T11:58:36;10.50;99.90
14172;DHT22;7165;52.388;4.928;2022-12-29T12:01:06;10.60;99.90
14172;DHT22;7165;52.388;4.928;2022-12-29T12:03:36;10.60;99.90
14172;DHT22;7165;52.388;4.928;2022-12-29T12:06:07;10.60;99.90
14172;DHT22;7165;52.388;4.928;2022-12-29T12:08:39;10.70;99.90
14172;DHT22;7165;52.388;4.928;2022-12-29T12:11:12;10.70;99.90
14172;DHT22;7165;52.388;4.928;2022-12-29T12:13:43;10.70;99.90
14172;DHT22;7165;52.388;4.928;2022-12-29T12:16:15;10.80;99.90
14172;DHT22;7165;52.388;4.928;2022-12-29T12:18:47;10.80;99.90
14172;DHT22;7165;52.388;4.928;2022-12-29T12:21:23;10.90;99.90
14172;DHT22;7165;52.388;4.928;2022-12-29T12:24:05;10.90;99.90
14172;DHT22;7165;52.388;4.928;2022-12-29T12:26:46;11.00;99.90
14172;DHT22;7165;52.388;4.928;2022-12-29T12:29:24;10.90;99.90
14172;DHT22;7165;52.388;4.928;2022-12-29T12:31:55;10.90;99.90
14172;DHT22;7165;52.388;4.928;2022-12-29T12:34:26;10.90;99.90
14172;DHT22;7165;52.388;4.928;2022-12-29T12:37:15;10.90;99.90
14172;DHT22;7165;52.388;4.928;2022-12-29T12:39:54;10.90;99.90
14172;DHT22;7165;52.388;4.928;2022-12-29T12:42:34;10.90;99.90
14172;DHT22;7165;52.388;4.928;2022-12-29T12:45:34;10.90;99.90
14172;DHT22;7165;52.388;4.928;2022-12-29T12:48:15;10.80;99.90
14172;DHT22;7165;52.388;4.928;2022-12-29T12:50:51;10.80;99.90
14172;DHT22;7165;52.388;4.928;2022-12-29T12:53:37;10.80;99.90
14172;DHT22;7165;52.388;4.928;2022-12-29T12:56:23;10.80;99.90
14172;DHT22;7165;52.388;4.928;2022-12-29T12:58:58;10.80;99.90
14172;DHT22;7165;52.388;4.928;2022-12-29T13:01:35;10.80;99.90
14172;DHT22;7165;52.388;4.928;2022-12-29T13:04:40;10.80;99.90
14172;DHT22;7165;52.388;4.928;2022-12-29T13:07:18;10.80;99.90
14172;DHT22;7165;52.388;4.928;2022-12-29T13:10:07;10.70;99.90
14172;DHT22;7165;52.388;4.928;2022-12-29T13:12:43;10.70;99.90
14172;DHT22;7165;52.388;4.928;2022-12-29T13:15:21;10.70;99.90
14172;DHT22;7165;52.388;4.928;2022-12-29T13:17:57;10.70;99.90
14172;DHT22;7165;52.388;4.928;2022-12-29T13:20:34;10.70;99.90
14172;DHT22;7165;52.388;4.928;2022-12-29T13:23:07;10.70;99.90
14172;DHT22;7165;52.388;4.928;2022-12-29T13:25:42;10.70;99.90
14172;DHT22;7165;52.388;4.928;2022-12-29T13:28:18;10.70;99.90
14172;DHT22;7165;52.388;4.928;2022-12-29T13:30:55;10.70;99.90
14172;DHT22;7165;52.388;4.928;2022-12-29T13:33:29;10.70;99.90
14172;DHT22;7165;52.388;4.928;2022-12-29T13:36:03;10.70;99.90
14172;DHT22;7165;52.388;4.928;2022-12-29T13:38:34;10.70;99.90
14172;DHT22;7165;52.388;4.928;2022-12-29T13:41:07;10.80;99.90
14172;DHT22;7165;52.388;4.928;2022-12-29T13:43:38;10.80;99.90
14172;DHT22;7165;52.388;4.928;2022-12-29T13:46:09;10.70;99.90
14172;DHT22;7165;52.388;4.928;2022-12-29T13:48:40;10.80;99.90
14172;DHT22;7165;52.388;4.928;2022-12-29T13:51:09;10.70;99.90
14172;DHT22;7165;52.388;4.928;2022-12-29T13:53:42;10.70;99.90
14172;DHT22;7165;52.388;4.928;2022-12-29T13:56:19;10.70;99.90
14172;DHT22;7165;52.388;4.928;2022-12-29T13:58:54;10.70;99.90
14172;DHT22;7165;52.388;4.928;2022-12-29T14:01:29;10.70;99.90
14172;DHT22;7165;52.388;4.928;2022-12-29T14:03:57;10.70;99.90
14172;DHT22;7165;52.388;4.928;2022-12-29T14:06:27;10.70;99.90
14172;DHT22;7165;52.388;4.928;2022-12-29T14:08:56;10.70;99.90
14172;DHT22;7165;52.388;4.928;2022-12-29T14:11:31;10.70;99.90
14172;DHT22;7165;52.388;4.928;2022-12-29T14:13:59;10.70;99.90
14172;DHT22;7165;52.388;4.928;2022-12-29T14:16:36;10.70;99.90
14172;DHT22;7165;52.388;4.928;2022-12-29T14:19:11;10.70;99.90
14172;DHT22;7165;52.388;4.928;2022-12-29T14:21:40;10.70;99.90
14172;DHT22;7165;52.388;4.928;2022-12-29T14:24:27;10.70;99.90
14172;DHT22;7165;52.388;4.928;2022-12-29T14:26:55;10.70;99.90
14172;DHT22;7165;52.388;4.928;2022-12-29T14:29:43;10.70;99.90
14172;DHT22;7165;52.388;4.928;2022-12-29T14:32:36;10.70;99.90
14172;DHT22;7165;52.388;4.928;2022-12-29T14:35:37;10.60;99.90
14172;DHT22;7165;52.388;4.928;2022-12-29T14:38:07;10.70;99.90
14172;DHT22;7165;52.388;4.928;2022-12-29T14:40:34;10.60;99.90
14172;DHT22;7165;52.388;4.928;2022-12-29T14:43:11;10.60;99.90
14172;DHT22;7165;52.388;4.928;2022-12-29T14:45:41;10.50;99.90
14172;DHT22;7165;52.388;4.928;2022-12-29T14:48:27;10.50;99.90
14172;DHT22;7165;52.388;4.928;2022-12-29T14:50:55;10.50;99.90
14172;DHT22;7165;52.388;4.928;2022-12-29T14:53:44;10.40;99.90
14172;DHT22;7165;52.388;4.928;2022-12-29T14:56:12;10.40;99.90
14172;DHT22;7165;52.388;4.928;2022-12-29T14:58:46;10.40;99.90
14172;DHT22;7165;52.388;4.928;2022-12-29T15:01:20;10.40;99.90
14172;DHT22;7165;52.388;4.928;2022-12-29T15:03:50;10.40;99.90
14172;DHT22;7165;52.388;4.928;2022-12-29T15:06:18;10.30;99.90
14172;DHT22;7165;52.388;4.928;2022-12-29T15:08:51;10.30;99.90
14172;DHT22;7165;52.388;4.928;2022-12-29T15:11:20;10.30;99.90
14172;DHT22;7165;52.388;4.928;2022-12-29T15:13:49;10.30;99.90
14172;DHT22;7165;52.388;4.928;2022-12-29T15:16:24;10.30;99.90
14172;DHT22;7165;52.388;4.928;2022-12-29T15:18:52;10.20;99.90
14172;DHT22;7165;52.388;4.928;2022-12-29T15:21:22;10.20;99.90
14172;DHT22;7165;52.388;4.928;2022-12-29T15:23:49;10.10;99.90
14172;DHT22;7165;52.388;4.928;2022-12-29T15:26:16;10.10;99.90
14172;DHT22;7165;52.388;4.928;2022-12-29T15:28:50;10.00;99.90
14172;DHT22;7165;52.388;4.928;2022-12-29T15:31:20;10.00;99.90
14172;DHT22;7165;52.388;4.928;2022-12-29T15:33:49;10.00;99.90
14172;DHT22;7165;52.388;4.928;2022-12-29T15:36:20;10.00;99.90
14172;DHT22;7165;52.388;4.928;2022-12-29T15:38:48;10.00;99.90
14172;DHT22;7165;52.388;4.928;2022-12-29T15:41:26;10.00;99.90
14172;DHT22;7165;52.388;4.928;2022-12-29T15:44:08;10.00;99.90
14172;DHT22;7165;52.388;4.928;2022-12-29T15:46:38;10.00;99.90
14172;DHT22;7165;52.388;4.928;2022-12-29T15:49:06;10.00;99.90
14172;DHT22;7165;52.388;4.928;2022-12-29T15:51:37;10.00;99.90
14172;DHT22;7165;52.388;4.928;2022-12-29T15:54:05;10.00;99.90
14172;DHT22;7165;52.388;4.928;2022-12-29T15:56:33;9.90;99.90
14172;DHT22;7165;52.388;4.928;2022-12-29T15:59:01;9.90;99.90
14172;DHT22;7165;52.388;4.928;2022-12-29T16:01:30;9.90;99.90
14172;DHT22;7165;52.388;4.928;2022-12-29T16:03:58;9.90;99.90
14172;DHT22;7165;52.388;4.928;2022-12-29T16:06:30;9.90;99.90
14172;DHT22;7165;52.388;4.928;2022-12-29T16:08:59;9.90;99.90
14172;DHT22;7165;52.388;4.928;2022-12-29T16:11:29;9.90;99.90
14172;DHT22;7165;52.388;4.928;2022-12-29T16:13:57;9.80;99.90
14172;DHT22;7165;52.388;4.928;2022-12-29T16:16:28;9.80;99.90
14172;DHT22;7165;52.388;4.928;2022-12-29T16:18:57;9.80;99.90
14172;DHT22;7165;52.388;4.928;2022-12-29T16:21:26;9.80;99.90